Terminal Aerodrome Forecast
Issued by NWS Shreveport, LA

Home | Current Version | Previous Version | Text Only | Print | Product List | Glossary On
Versions: 1 2 3 4 5 6 7 8 9 10 11 12 13 14 15 16 17
000
FTUS44 KSHV 052031 AAC
TAFSHV
TAF AMD
KSHV 052031Z 0521/0618 15009KT P6SM SCT040 OVC120
     FM052200 13013KT P6SM VCSH BKN040 OVC120
     FM060200 13010KT 6SM -TSRA BKN040CB OVC100
     FM060400 14009KT P6SM SCT040 OVC100
     FM061200 13009KT 6SM BR BKN020 OVC090
      TEMPO 0612/0615 4SM BR BKN009 OVC015
     FM061600 15009KT P6SM OVC025=

USA.gov is the U.S. government's official web portal to all federal, state and local government web resources and services.